Time;durP1;ratioP1;P1;durP2;ratioP2;P2;SDS_P1;SDS_P2;PMS_P1;PMS_P2;Temp;Humidity;BMP_temperature;BMP_pressure;BME280_temperature;BME280_humidity;BME280_pressure;Samples;Min_cycle;Max_cycle;Signal;HPM_P1;HPM_P2
2022/12/08 00:01:31;;;;;;;21.17;11.38;;;;;;;3.21;84.24;97657.69;5026566;28;20037;-87
2022/12/08 00:03:59;;;;;;;22.83;11.27;;;;;;;3.06;84.53;97643.78;4987580;28;20065;-87
2022/12/08 00:09:22;;;;;;;20.27;11.15;;;;;;;3.25;84.40;97642.66;5022923;28;20483;-87
2022/12/08 00:11:59;;;;;;;20.00;11.10;;;;;;;3.31;84.11;97652.34;5015891;28;20477;-87
2022/12/08 00:14:30;;;;;;;26.92;12.43;;;;;;;3.38;84.20;97653.31;5023745;28;20055;-87
2022/12/08 00:16:57;;;;;;;19.38;11.27;;;;;;;3.44;84.10;97655.25;5029143;28;20076;-87
2022/12/08 00:19:24;;;;;;;19.70;11.30;;;;;;;3.47;83.72;97641.94;5030181;28;20043;-87
2022/12/08 00:21:50;;;;;;;19.13;10.80;;;;;;;3.52;83.96;97644.84;5022537;28;20533;-87
2022/12/08 00:24:17;;;;;;;20.77;10.98;;;;;;;3.55;83.76;97641.13;5024250;28;20083;-87
2022/12/08 00:26:43;;;;;;;20.73;10.77;;;;;;;3.49;83.52;97640.81;5031472;28;20029;-87
2022/12/08 00:29:09;;;;;;;20.65;11.18;;;;;;;3.56;83.19;97640.16;5021934;28;20029;-87
2022/12/08 00:31:35;;;;;;;19.80;11.30;;;;;;;3.46;83.72;97630.75;5028919;28;20041;-86
2022/12/08 00:34:00;;;;;;;20.05;11.05;;;;;;;3.55;83.45;97628.16;5017850;28;20370;-87
2022/12/08 00:36:29;;;;;;;22.23;11.80;;;;;;;3.66;83.71;97630.41;5027205;28;20038;-87
2022/12/08 00:38:55;;;;;;;22.88;12.13;;;;;;;3.69;83.17;97625.69;5018049;28;20080;-87
2022/12/08 00:44:17;;;;;;;21.75;11.00;;;;;;;3.66;82.41;97630.41;5028479;28;20030;-87
2022/12/08 00:46:44;;;;;;;21.98;12.63;;;;;;;3.61;82.24;97628.31;5012803;28;20041;-87
2022/12/08 00:49:10;;;;;;;19.80;11.50;;;;;;;3.68;82.15;97633.63;5033213;28;20108;-87
2022/12/08 00:51:37;;;;;;;22.30;12.25;;;;;;;3.61;82.12;97630.09;5032297;28;20112;-87
2022/12/08 00:54:04;;;;;;;21.15;11.68;;;;;;;3.65;82.00;97650.31;5007124;28;20072;-87
2022/12/08 00:56:33;;;;;;;23.50;12.70;;;;;;;3.44;82.29;97606.78;5024650;28;20461;-87
2022/12/08 00:59:00;;;;;;;20.00;11.30;;;;;;;3.59;82.47;97639.81;5027447;28;20497;-87
2022/12/08 01:01:26;;;;;;;23.73;11.80;;;;;;;3.51;82.29;97625.09;5025197;28;20041;-87
2022/12/08 01:03:52;;;;;;;21.88;11.88;;;;;;;3.41;82.46;97625.25;5022506;28;20614;-87
2022/12/08 01:06:18;;;;;;;21.15;11.52;;;;;;;3.39;82.78;97624.63;5012872;28;20038;-87
2022/12/08 01:08:44;;;;;;;19.65;11.60;;;;;;;3.31;82.62;97606.50;5029648;28;20135;-87
2022/12/08 01:11:17;;;;;;;20.17;11.27;;;;;;;3.40;82.60;97630.63;5023797;28;20092;-87
2022/12/08 01:13:44;;;;;;;24.50;11.93;;;;;;;3.26;83.06;97613.16;5032379;28;20516;-87
2022/12/08 01:16:25;;;;;;;22.08;12.68;;;;;;;3.22;82.59;97626.44;5031377;28;20368;-87
2022/12/08 01:18:51;;;;;;;19.98;11.07;;;;;;;3.16;82.82;97621.09;5031960;28;20036;-87
2022/12/08 01:21:18;;;;;;;20.95;11.30;;;;;;;3.25;82.33;97632.28;5020107;28;20477;-87
2022/12/08 01:23:45;;;;;;;24.00;12.13;;;;;;;3.04;82.23;97614.63;5031279;28;20060;-87
2022/12/08 01:26:14;;;;;;;23.23;11.40;;;;;;;3.04;82.95;97615.44;5010075;28;20096;-87
2022/12/08 01:28:40;;;;;;;25.63;12.57;;;;;;;3.22;82.48;97638.59;5030311;28;20029;-88
2022/12/08 01:31:15;;;;;;;23.13;12.23;;;;;;;3.06;82.66;97623.88;5028687;28;20120;-87
2022/12/08 01:33:42;;;;;;;20.17;11.85;;;;;;;3.18;82.66;97632.13;5027099;28;20041;-88
2022/12/08 01:36:19;;;;;;;22.15;11.45;;;;;;;3.23;82.33;97641.00;5021230;28;20026;-87
2022/12/08 01:38:45;;;;;;;24.42;11.48;;;;;;;3.19;82.63;97610.41;5013700;28;20052;-87
2022/12/08 01:41:20;;;;;;;21.35;11.48;;;;;;;3.31;82.00;97629.84;5011379;28;20488;-87
2022/12/08 01:44:21;;;;;;;19.30;11.20;;;;;;;3.30;82.36;97629.97;5018377;28;20029;-87
2022/12/08 01:46:47;;;;;;;22.02;11.43;;;;;;;3.25;82.21;97617.53;5022212;28;20030;-87
2022/12/08 01:49:29;;;;;;;23.13;10.90;;;;;;;3.22;81.89;97623.84;5029014;28;20037;-87
2022/12/08 01:52:22;;;;;;;19.55;11.50;;;;;;;3.31;82.32;97627.25;5026046;28;20076;-87
2022/12/08 01:54:56;;;;;;;18.58;10.20;;;;;;;3.33;82.00;97624.47;5002626;28;20026;-87
2022/12/08 01:57:29;;;;;;;19.25;10.85;;;;;;;3.23;81.59;97609.91;5028746;28;20763;-87
2022/12/08 02:00:11;;;;;;;19.88;10.80;;;;;;;3.25;81.44;97603.78;5028971;28;20037;-87
2022/12/08 02:02:53;;;;;;;19.17;10.77;;;;;;;3.27;81.28;97609.59;5031641;28;20037;-87
2022/12/08 02:05:26;;;;;;;20.00;11.13;;;;;;;3.29;80.79;97623.19;5026670;28;20574;-87
2022/12/08 02:07:54;;;;;;;20.65;10.88;;;;;;;3.13;81.38;97592.94;5022252;28;20068;-87
2022/12/08 02:10:23;;;;;;;21.38;11.07;;;;;;;3.23;81.75;97619.47;5027507;28;20037;-87
2022/12/08 02:12:54;;;;;;;18.52;11.07;;;;;;;3.12;81.17;97593.88;5031132;28;20090;-87
2022/12/08 02:15:41;;;;;;;20.42;12.02;;;;;;;3.08;81.00;97595.22;5013101;28;20099;-87
2022/12/08 02:18:39;;;;;;;20.27;12.02;;;;;;;3.06;81.50;97591.94;5029098;28;20033;-87
2022/12/08 02:21:15;;;;;;;19.20;10.77;;;;;;;2.90;81.21;97578.06;5013231;28;20038;-87
2022/12/08 02:24:28;;;;;;;24.38;11.00;;;;;;;2.95;81.76;97591.34;5030553;28;20241;-87
2022/12/08 02:27:39;;;;;;;18.90;10.30;;;;;;;2.91;81.74;97584.06;5005149;28;20483;-87
2022/12/08 02:30:12;;;;;;;20.42;10.55;;;;;;;2.90;81.88;97587.63;5023288;28;20041;-87
2022/12/08 02:33:06;;;;;;;20.90;11.00;;;;;;;2.87;81.95;97583.56;5022136;28;20037;-87
2022/12/08 02:35:58;;;;;;;19.98;11.27;;;;;;;2.79;82.14;97580.97;5024317;28;20045;-87
2022/12/08 02:38:45;;;;;;;20.42;11.13;;;;;;;2.76;82.43;97576.16;5026035;28;20030;-87
2022/12/08 02:41:28;;;;;;;21.17;11.23;;;;;;;2.77;82.31;97587.31;5030255;28;20088;-88
2022/12/08 02:44:08;;;;;;;21.52;11.38;;;;;;;2.81;82.70;97576.44;5000332;28;20476;-87
2022/12/08 02:47:00;;;;;;;17.67;9.25;;;;;;;2.74;81.70;97583.25;5028245;28;20037;-87
2022/12/08 02:49:32;;;;;;;20.90;11.48;;;;;;;2.80;82.36;97572.22;5015012;28;20112;-87
2022/12/08 02:52:12;;;;;;;20.73;11.45;;;;;;;2.85;82.42;97572.56;5000722;28;20032;-87
2022/12/08 02:54:46;;;;;;;22.55;11.50;;;;;;;2.69;81.58;97550.06;5022399;28;20042;-87
2022/12/08 02:57:32;;;;;;;21.55;10.85;;;;;;;2.76;81.90;97558.00;5027176;28;20033;-87
2022/12/08 03:00:10;;;;;;;23.23;11.57;;;;;;;2.78;82.38;97557.84;5029907;28;20683;-87
2022/12/08 03:03:03;;;;;;;20.13;11.30;;;;;;;2.86;82.48;97561.22;5006219;28;20025;-87
2022/12/08 03:05:59;;;;;;;21.10;11.55;;;;;;;2.83;82.39;97556.38;4996129;28;20057;-87
2022/12/08 03:08:53;;;;;;;22.65;11.13;;;;;;;2.89;81.96;97549.75;5000074;28;20041;-87
2022/12/08 03:11:33;;;;;;;21.60;11.32;;;;;;;2.81;81.43;97558.31;5021342;28;20532;-87
2022/12/08 03:14:06;;;;;;;20.50;10.88;;;;;;;2.74;82.04;97541.00;5025459;28;20096;-87
2022/12/08 03:16:37;;;;;;;23.25;11.23;;;;;;;2.78;81.72;97532.75;5006054;28;20465;-87
2022/12/08 03:19:11;;;;;;;20.45;10.98;;;;;;;2.77;81.06;97530.34;5023275;28;20037;-87
2022/12/08 03:21:42;;;;;;;22.17;11.55;;;;;;;2.83;81.46;97525.31;5012178;28;20055;-87
2022/12/08 03:24:11;;;;;;;20.05;11.02;;;;;;;2.80;80.58;97522.22;5021594;28;20030;-87
2022/12/08 03:26:50;;;;;;;19.60;10.80;;;;;;;2.99;81.30;97544.38;5024954;28;20034;-87
2022/12/08 03:29:17;;;;;;;20.50;10.85;;;;;;;3.00;81.07;97541.63;5029125;28;20042;-87
2022/12/08 03:31:58;;;;;;;20.13;10.75;;;;;;;2.98;80.99;97545.34;5007996;28;20116;-87
2022/12/08 03:34:28;;;;;;;19.88;10.82;;;;;;;2.84;80.91;97526.91;5016680;28;20033;-87
2022/12/08 03:37:01;;;;;;;18.55;10.30;;;;;;;2.79;81.26;97525.78;5001836;28;20070;-87
2022/12/08 03:39:27;;;;;;;20.73;11.65;;;;;;;2.95;81.26;97533.53;5010145;28;20489;-87
2022/12/08 03:41:54;;;;;;;19.00;10.57;;;;;;;2.95;80.97;97534.34;5022506;28;20072;-87
2022/12/08 03:44:19;;;;;;;20.48;10.38;;;;;;;2.84;80.82;97520.94;5026254;28;20120;-87
2022/12/08 03:46:45;;;;;;;19.52;10.77;;;;;;;2.82;80.51;97513.34;5027148;28;20096;-88
2022/12/08 03:49:10;;;;;;;19.42;10.63;;;;;;;2.85;80.45;97512.19;5030558;28;20485;-87
2022/12/08 03:51:36;;;;;;;19.83;11.07;;;;;;;2.88;80.62;97520.44;5029263;28;20029;-87
2022/12/08 03:54:04;;;;;;;22.00;11.05;;;;;;;2.74;80.79;97491.81;5024484;28;20646;-87
2022/12/08 03:56:37;;;;;;;19.58;11.38;;;;;;;2.76;80.68;97505.38;5028523;28;20048;-86
2022/12/08 03:59:04;;;;;;;21.00;11.05;;;;;;;2.90;80.47;97523.66;5029908;28;20038;-87
2022/12/08 04:01:30;;;;;;;20.73;11.43;;;;;;;2.82;80.42;97508.16;5021811;28;20030;-87
2022/12/08 04:03:58;;;;;;;18.13;10.38;;;;;;;2.89;80.36;97514.28;5031995;28;20038;-87
2022/12/08 04:06:24;;;;;;;19.65;10.30;;;;;;;2.83;80.29;97516.72;5023633;28;20076;-87
2022/12/08 04:08:52;;;;;;;18.70;10.43;;;;;;;2.74;80.86;97510.75;5012528;28;20037;-87
2022/12/08 04:11:19;;;;;;;18.05;9.85;;;;;;;2.70;80.37;97501.69;5007241;28;20026;-86
2022/12/08 04:13:47;;;;;;;19.00;10.73;;;;;;;2.86;80.16;97514.59;5028906;28;20451;-87
2022/12/08 04:16:22;;;;;;;20.17;10.05;;;;;;;2.81;80.15;97493.56;5033275;28;20029;-87
2022/12/08 04:18:48;;;;;;;20.55;10.57;;;;;;;2.82;79.70;97505.56;5027051;28;20038;-87
2022/12/08 04:21:19;;;;;;;17.95;10.48;;;;;;;2.79;79.92;97484.34;5001614;28;20443;-87
2022/12/08 04:23:45;;;;;;;19.38;10.63;;;;;;;2.86;79.75;97501.66;5031538;28;20065;-87
2022/12/08 04:26:12;;;;;;;22.30;10.93;;;;;;;2.93;79.64;97489.66;5026872;28;20310;-88
2022/12/08 04:28:37;;;;;;;17.30;9.60;;;;;;;2.98;79.38;97485.75;5032743;28;20030;-88
2022/12/08 04:31:06;;;;;;;17.63;10.35;;;;;;;3.04;79.46;97498.84;5024353;28;20104;-87
2022/12/08 04:33:34;;;;;;;19.15;10.93;;;;;;;3.07;79.23;97493.34;5032845;28;20055;-87
2022/12/08 04:36:02;;;;;;;20.98;10.35;;;;;;;3.14;78.83;97507.25;5023132;28;20042;-87
2022/12/08 04:38:27;;;;;;;18.90;10.60;;;;;;;3.12;78.99;97495.41;5027350;28;20071;-87
2022/12/08 04:40:53;;;;;;;21.05;10.15;;;;;;;3.09;78.66;97490.59;5028061;28;20029;-87
2022/12/08 04:43:19;;;;;;;19.08;10.07;;;;;;;3.14;78.41;97498.69;5008347;28;20141;-87
2022/12/08 04:45:45;;;;;;;21.08;11.38;;;;;;;3.01;78.80;97480.25;5026034;28;20108;-88
2022/12/08 04:48:12;;;;;;;19.95;10.25;;;;;;;3.01;78.67;97480.25;5017796;28;20033;-88
2022/12/08 04:50:44;;;;;;;19.70;10.50;;;;;;;3.06;78.86;97491.75;5030633;28;20072;-87
2022/12/08 04:53:12;;;;;;;20.15;10.63;;;;;;;2.97;79.12;97486.75;5027894;28;20067;-87
2022/12/08 04:55:47;;;;;;;20.60;10.48;;;;;;;2.93;78.94;97463.75;5024175;28;20433;-87
2022/12/08 04:58:16;;;;;;;19.65;10.48;;;;;;;3.11;78.86;97492.03;5031831;28;20612;-87
2022/12/08 05:00:50;;;;;;;20.52;10.90;;;;;;;2.99;78.39;97482.19;5026070;28;20038;-87
2022/12/08 05:03:17;;;;;;;16.15;9.40;;;;;;;2.92;78.33;97472.50;5022910;28;20034;-87
2022/12/08 05:05:42;;;;;;;20.95;11.27;;;;;;;3.01;79.16;97482.84;5023749;28;20033;-88
2022/12/08 05:08:09;;;;;;;19.17;10.20;;;;;;;3.06;78.94;97488.31;5025001;28;20078;-87
2022/12/08 05:10:35;;;;;;;13.85;6.57;;;;;;;2.95;78.00;97492.91;5023831;28;20108;-87
2022/12/08 05:13:00;;;;;;;18.38;9.43;;;;;;;3.01;78.27;97495.81;5024855;28;20037;-87
2022/12/08 05:15:27;;;;;;;17.48;9.90;;;;;;;2.97;78.90;97484.16;5027632;28;20069;-87
2022/12/08 05:17:52;;;;;;;20.63;10.23;;;;;;;2.91;78.82;97475.25;5030462;28;20061;-88
2022/12/08 05:20:18;;;;;;;18.70;9.90;;;;;;;2.93;79.17;97489.66;5010194;28;20141;-87
2022/12/08 05:22:45;;;;;;;14.60;8.13;;;;;;;2.81;78.78;97487.56;5030678;28;20025;-87
2022/12/08 05:25:11;;;;;;;18.25;9.57;;;;;;;2.78;79.63;97490.50;5011797;28;20040;-87
2022/12/08 05:27:39;;;;;;;21.65;10.35;;;;;;;2.81;80.46;97487.56;5032350;28;20061;-87
2022/12/08 05:30:06;;;;;;;22.13;11.43;;;;;;;2.73;80.53;97469.47;5014524;28;20045;-87
2022/12/08 05:32:31;;;;;;;20.25;9.90;;;;;;;2.77;80.67;97476.75;5031803;28;20033;-88
2022/12/08 05:34:57;;;;;;;20.38;9.93;;;;;;;2.82;81.12;97471.91;4987698;28;20091;-88
2022/12/08 05:37:22;;;;;;;22.27;11.23;;;;;;;2.76;80.96;97462.19;5012888;28;20120;-88
2022/12/08 05:39:48;;;;;;;18.92;10.02;;;;;;;2.83;81.10;97483.88;5024429;28;20033;-88
2022/12/08 05:42:16;;;;;;;19.95;9.82;;;;;;;2.93;80.81;97483.66;5027199;28;20112;-89
2022/12/08 05:44:46;;;;;;;20.50;11.80;;;;;;;2.94;81.01;97485.31;5011548;28;20044;-88
2022/12/08 05:47:12;;;;;;;21.80;11.07;;;;;;;2.79;81.25;97456.66;5007215;28;20405;-88
2022/12/08 05:49:37;;;;;;;22.10;10.93;;;;;;;2.85;81.02;97463.78;5032440;28;20032;-88
2022/12/08 05:52:03;;;;;;;18.83;10.88;;;;;;;3.01;81.02;97480.25;5031866;28;20037;-88
2022/12/08 05:54:29;;;;;;;20.33;10.98;;;;;;;2.98;80.94;97465.03;5007173;28;20034;-89
2022/12/08 05:56:54;;;;;;;25.15;11.88;;;;;;;2.96;80.86;97457.44;5010454;28;20544;-89
2022/12/08 05:59:23;;;;;;;20.70;10.32;;;;;;;2.95;81.07;97472.19;5010663;28;20516;-88
2022/12/08 06:01:51;;;;;;;18.80;10.25;;;;;;;2.90;81.01;97474.44;5027564;28;20030;-88
2022/12/08 06:04:19;;;;;;;21.80;10.77;;;;;;;2.89;81.25;97454.72;5014384;28;20470;-89
2022/12/08 06:06:48;;;;;;;;;;;;;;;3.05;81.17;97481.53;5027680;28;20053;-89
2022/12/08 06:09:14;;;;;;;21.17;10.68;;;;;;;2.93;81.01;97474.09;5012467;28;20408;-88
2022/12/08 06:11:45;;;;;;;21.35;10.85;;;;;;;2.94;81.32;97469.75;4986934;28;20430;-88
2022/12/08 06:14:11;;;;;;;20.98;10.70;;;;;;;2.94;81.26;97465.38;5026396;28;20049;-88
2022/12/08 06:16:39;;;;;;;21.58;10.77;;;;;;;2.91;81.70;97465.69;5031046;28;20029;-88
2022/12/08 06:19:05;;;;;;;20.77;10.95;;;;;;;2.93;81.01;97473.31;5024310;28;20065;-88
2022/12/08 06:21:33;;;;;;;21.98;10.73;;;;;;;2.96;81.68;97465.22;5012153;28;20077;-88
2022/12/08 06:23:58;;;;;;;23.67;12.63;;;;;;;2.92;81.29;97467.31;5022871;28;20029;-88
2022/12/08 06:26:27;;;;;;;21.17;11.20;;;;;;;2.67;80.78;97453.63;5027894;28;20075;-88
2022/12/08 06:28:53;;;;;;;21.95;11.20;;;;;;;2.81;81.66;97475.44;5031089;28;20037;-88
2022/12/08 06:31:25;;;;;;;17.63;10.10;;;;;;;2.77;81.29;97461.22;5019072;28;20037;-88
2022/12/08 06:33:52;;;;;;;21.95;10.18;;;;;;;2.70;80.82;97468.03;5023837;28;20033;-88
2022/12/08 06:36:21;;;;;;;21.00;10.50;;;;;;;2.83;81.52;97477.88;5023086;28;20045;-88
2022/12/08 06:38:48;;;;;;;23.23;11.05;;;;;;;2.77;81.34;97463.81;5009593;28;20029;-89
2022/12/08 06:41:13;;;;;;;24.80;12.02;;;;;;;2.80;81.30;97463.47;5017264;28;20650;-88
2022/12/08 06:43:42;;;;;;;22.38;10.23;;;;;;;2.89;80.88;97475.44;5022233;28;20037;-89
2022/12/08 06:46:16;;;;;;;20.17;9.85;;;;;;;2.70;80.54;97457.69;4997309;28;20468;-88
2022/12/08 06:48:47;;;;;;;22.60;11.50;;;;;;;2.83;80.88;97467.53;5000229;28;20038;-88
2022/12/08 06:51:17;;;;;;;23.15;11.15;;;;;;;2.81;81.29;97454.72;5026690;28;20037;-88
2022/12/08 06:53:44;;;;;;;21.05;10.85;;;;;;;2.75;80.80;97465.72;5024480;28;20033;-88
2022/12/08 06:56:19;;;;;;;26.05;12.20;;;;;;;2.88;81.62;97481.59;5021761;28;20060;-88
2022/12/08 06:58:45;;;;;;;23.08;11.73;;;;;;;2.78;81.30;97465.41;4984347;28;20022;-88
2022/12/08 07:01:13;;;;;;;20.73;10.85;;;;;;;2.83;81.27;97483.06;5027916;28;20053;-88
2022/12/08 07:03:42;;;;;;;22.98;11.32;;;;;;;2.89;81.11;97478.03;5009984;28;20060;-88
2022/12/08 07:06:20;;;;;;;24.17;11.35;;;;;;;2.91;80.83;97488.22;5006941;28;20124;-89
2022/12/08 07:08:46;;;;;;;23.15;10.80;;;;;;;2.96;80.70;97491.13;5019077;28;20029;-88
2022/12/08 07:11:12;;;;;;;18.48;10.05;;;;;;;2.81;80.33;97474.63;5019915;28;20044;-88
2022/12/08 07:13:38;;;;;;;23.70;10.55;;;;;;;2.82;80.79;97482.25;5006684;28;20388;-88
2022/12/08 07:16:13;;;;;;;22.35;10.60;;;;;;;2.86;81.45;97488.69;5004532;28;20030;-88
2022/12/08 07:18:43;;;;;;;21.80;10.55;;;;;;;2.78;80.85;97485.34;5004716;28;20125;-88
2022/12/08 07:21:13;;;;;;;21.73;10.93;;;;;;;2.76;80.64;97477.75;5021668;28;20554;-88
2022/12/08 07:23:47;;;;;;;17.42;10.10;;;;;;;2.73;81.15;97496.19;4996859;28;20032;-88
2022/12/08 07:26:17;;;;;;;22.60;10.30;;;;;;;2.63;81.73;97478.22;5002389;28;20640;-88
2022/12/08 07:28:48;;;;;;;22.80;10.60;;;;;;;2.58;81.94;97466.72;5026875;28;20046;-89
2022/12/08 07:31:21;;;;;;;21.95;11.02;;;;;;;2.65;81.67;97475.50;5004802;28;20096;-88
2022/12/08 07:33:49;;;;;;;18.70;10.10;;;;;;;2.70;81.53;97493.94;5003965;28;20030;-89
2022/12/08 07:36:22;;;;;;;22.30;10.98;;;;;;;2.67;80.85;97479.50;5012304;28;20025;-88
2022/12/08 07:38:51;;;;;;;19.98;10.15;;;;;;;2.89;81.21;97483.19;5023535;28;20195;-88
2022/12/08 07:41:21;;;;;;;20.30;10.13;;;;;;;2.95;80.73;97492.91;5026825;28;20084;-88
2022/12/08 07:43:49;;;;;;;20.45;10.25;;;;;;;2.90;80.31;97479.63;5000502;28;20393;-89
2022/12/08 07:46:22;;;;;;;20.67;11.25;;;;;;;2.91;80.91;97475.25;5026808;28;20037;-89
2022/12/08 07:48:47;;;;;;;20.85;10.63;;;;;;;2.95;80.44;97477.34;5005575;28;20036;-89
2022/12/08 07:51:18;;;;;;;19.58;9.88;;;;;;;3.13;79.95;97489.28;5006822;28;20117;-88
2022/12/08 07:53:47;;;;;;;18.02;9.23;;;;;;;3.04;80.01;97477.31;4989353;28;20029;-88
2022/12/08 07:56:13;;;;;;;19.60;10.48;;;;;;;3.08;80.25;97476.84;5019985;28;20489;-89
2022/12/08 07:58:56;;;;;;;21.80;9.90;;;;;;;3.00;79.05;97469.09;5028101;28;20493;-89
2022/12/08 08:01:27;;;;;;;19.50;9.93;;;;;;;3.00;80.09;97478.63;5025594;28;20090;-89
2022/12/08 08:03:56;;;;;;;20.63;10.50;;;;;;;3.02;80.29;97489.66;5028755;28;20132;-90
2022/12/08 08:06:22;;;;;;;21.27;10.07;;;;;;;3.10;80.42;97480.06;5022367;28;20088;-90
2022/12/08 08:08:48;;;;;;;20.55;9.85;;;;;;;3.17;79.90;97487.97;5033809;28;20068;-89
2022/12/08 08:11:13;;;;;;;20.55;10.90;;;;;;;3.14;80.04;97481.34;5023397;28;20041;-89
2022/12/08 08:13:39;;;;;;;23.10;10.50;;;;;;;3.25;80.35;97487.94;4987743;28;20117;-88
2022/12/08 08:16:12;;;;;;;21.02;9.75;;;;;;;3.24;80.11;97475.97;5003358;28;20061;-88
2022/12/08 08:18:38;;;;;;;20.17;10.10;;;;;;;3.23;79.98;97482.09;5003186;28;20732;-88
2022/12/08 08:21:07;;;;;;;19.70;10.80;;;;;;;3.32;79.69;97488.88;5023209;28;20033;-88
2022/12/08 08:23:33;;;;;;;20.80;10.85;;;;;;;3.37;80.36;97478.81;5018241;28;20064;-88
2022/12/08 08:26:06;;;;;;;20.27;9.95;;;;;;;3.29;79.38;97483.22;5023917;28;20033;-89
2022/12/08 08:28:33;;;;;;;18.85;9.48;;;;;;;3.19;79.45;97457.53;5010712;28;20049;-88
2022/12/08 08:31:04;;;;;;;20.88;10.55;;;;;;;3.22;79.38;97477.91;5004863;28;20122;-89
2022/12/08 08:33:32;;;;;;;21.17;10.10;;;;;;;3.16;80.00;97465.63;5021588;28;20030;-88
2022/12/08 08:35:58;;;;;;;19.00;9.82;;;;;;;3.35;79.95;97483.34;5017444;28;20083;-89
2022/12/08 08:38:26;;;;;;;19.45;10.27;;;;;;;3.39;79.31;97484.63;5012623;28;20056;-88
2022/12/08 08:41:00;;;;;;;19.55;9.65;;;;;;;3.37;79.11;97467.66;5028978;28;20038;-88
2022/12/08 08:43:35;;;;;;;20.48;10.68;;;;;;;3.55;78.66;97491.53;4987328;28;20072;-89
2022/12/08 08:46:04;;;;;;;19.30;9.57;;;;;;;3.69;78.52;97487.41;5004395;28;20087;-89
2022/12/08 08:48:40;;;;;;;16.67;9.15;;;;;;;3.68;78.25;97483.22;5004081;28;20190;-89
2022/12/08 08:51:13;;;;;;;15.30;8.27;;;;;;;3.58;77.15;97488.59;5008577;28;20041;-88
2022/12/08 08:53:39;;;;;;;22.48;10.18;;;;;;;3.64;79.21;97474.13;5002299;28;20448;-88
2022/12/08 08:56:17;;;;;;;18.10;9.43;;;;;;;3.77;78.56;97482.16;5021765;28;20477;-88
2022/12/08 08:58:45;;;;;;;19.70;9.43;;;;;;;3.67;77.95;97463.44;5022513;28;20500;-88
2022/12/08 09:01:23;;;;;;;18.65;9.05;;;;;;;3.71;78.33;97464.69;5021805;28;20036;-88
2022/12/08 09:03:51;;;;;;;17.70;9.55;;;;;;;3.84;78.48;97472.75;5005250;28;20034;-88
2022/12/08 09:06:21;;;;;;;19.77;10.20;;;;;;;3.73;78.24;97454.97;5020781;28;20044;-88
2022/12/08 09:08:51;;;;;;;20.10;9.43;;;;;;;3.88;78.17;97457.63;5023601;28;20045;-88
2022/12/08 09:11:22;;;;;;;17.40;9.10;;;;;;;3.83;76.93;97476.28;5021676;28;20038;-88
2022/12/08 09:13:52;;;;;;;18.42;9.70;;;;;;;3.70;77.63;97456.09;5024301;28;20033;-88
2022/12/08 09:16:21;;;;;;;20.70;9.52;;;;;;;3.60;77.67;97463.31;5017011;28;20034;-88
2022/12/08 09:18:48;;;;;;;21.23;9.98;;;;;;;3.53;78.50;97458.97;5020816;28;20113;-88
2022/12/08 09:21:24;;;;;;;18.23;9.57;;;;;;;3.55;78.95;97451.84;4989197;28;20493;-88
2022/12/08 09:23:56;;;;;;;19.52;9.50;;;;;;;3.59;78.84;97458.28;5007080;28;20033;-88
2022/12/08 09:26:24;;;;;;;20.80;8.95;;;;;;;3.65;77.49;97473.16;5010838;28;20034;-87
2022/12/08 09:28:55;;;;;;;18.30;9.65;;;;;;;3.60;78.18;97475.44;5006828;28;20124;-87
2022/12/08 09:31:25;;;;;;;20.27;9.10;;;;;;;3.61;78.87;97467.53;5004448;28;20397;-87
2022/12/08 09:33:51;;;;;;;15.93;8.88;;;;;;;3.40;78.05;97467.31;5009592;28;20386;-87
2022/12/08 09:36:17;;;;;;;10.15;6.90;;;;;;;3.34;78.17;97481.75;5020459;28;20034;-88
2022/12/08 09:38:43;;;;;;;12.45;6.50;;;;;;;3.31;77.77;97465.72;5000493;28;20034;-87
2022/12/08 09:41:28;;;;;;;16.58;9.43;;;;;;;3.35;78.95;97465.22;5005227;28;20618;-87
2022/12/08 09:44:20;;;;;;;11.73;6.78;;;;;;;3.28;79.21;97466.06;5003107;28;20056;-88
2022/12/08 09:46:51;;;;;;;16.08;8.35;;;;;;;3.38;79.20;97482.22;5000563;28;20033;-88
2022/12/08 09:49:30;;;;;;;17.08;9.23;;;;;;;3.46;79.73;97470.00;5023772;28;20042;-87
2022/12/08 09:51:56;;;;;;;12.80;7.70;;;;;;;3.40;77.76;97451.75;5019280;28;20297;-86
2022/12/08 09:54:34;;;;;;;16.70;9.13;;;;;;;3.46;78.82;97444.09;5001880;28;20051;-87
2022/12/08 09:57:09;;;;;;;16.85;8.23;;;;;;;3.56;79.32;97443.09;5007075;28;20037;-86
2022/12/08 09:59:40;;;;;;;18.17;9.00;;;;;;;3.69;79.02;97443.31;5019826;28;20026;-86
2022/12/08 10:02:23;;;;;;;17.15;9.07;;;;;;;3.72;78.95;97435.22;5020631;28;20033;-87
2022/12/08 10:04:55;;;;;;;17.52;8.75;;;;;;;3.78;77.47;97434.53;5020862;28;20043;-86
2022/12/08 10:07:46;;;;;;;14.77;8.13;;;;;;;3.98;76.56;97453.81;5003065;28;20081;-87
2022/12/08 10:11:08;;;;;;;16.40;8.70;;;;;;;4.02;76.16;97444.72;5009138;28;20033;-87
2022/12/08 10:14:10;;;;;;;;;;;;;;;4.07;75.93;97441.59;4999182;28;20492;-87
2022/12/08 10:16:43;;;;;;;;;;;;;;;4.02;76.40;97444.72;5012337;28;19960;-87
2022/12/08 10:19:24;;;;;;;15.52;8.18;;;;;;;3.82;76.21;97443.56;5001875;28;19913;-86
2022/12/08 10:21:54;;;;;;;11.70;7.15;;;;;;;3.80;77.33;97432.56;5025094;28;20038;-86
2022/12/08 10:24:36;;;;;;;9.23;5.97;;;;;;;3.63;76.96;97441.41;5007129;28;20052;-86
2022/12/08 10:27:04;;;;;;;15.75;7.78;;;;;;;3.43;77.39;97413.34;5017344;28;20064;-86
2022/12/08 10:29:32;;;;;;;17.30;7.88;;;;;;;3.43;78.14;97408.16;5021152;28;20080;-87
2022/12/08 10:31:59;;;;;;;15.23;7.05;;;;;;;3.42;77.95;97405.75;5004623;28;20065;-86
2022/12/08 10:34:25;;;;;;;11.52;6.97;;;;;;;3.41;77.13;97404.91;5009449;28;20049;-86
2022/12/08 10:36:57;;;;;;;15.35;7.38;;;;;;;3.54;77.18;97414.75;5003101;28;20026;-86
2022/12/08 10:39:45;;;;;;;14.32;7.05;;;;;;;3.52;78.03;97405.50;5008304;28;20048;-86
2022/12/08 10:42:13;;;;;;;15.38;7.57;;;;;;;3.69;78.62;97404.41;5026419;28;20029;-86
2022/12/08 10:44:58;;;;;;;14.63;8.10;;;;;;;3.78;77.08;97398.22;5030015;28;20409;-86
2022/12/08 10:47:27;;;;;;;13.10;7.18;;;;;;;3.78;76.76;97403.41;5029149;28;20036;-87
2022/12/08 10:50:18;;;;;;;14.88;7.63;;;;;;;3.72;76.29;97396.31;5015942;28;20440;-92
2022/12/08 10:52:44;;;;;;;7.18;4.20;;;;;;;3.60;76.21;97402.84;5015689;28;20013;-93
2022/12/08 10:55:22;;;;;;;13.48;6.85;;;;;;;3.57;76.62;97387.66;5016656;28;20123;-93
2022/12/08 10:57:48;;;;;;;12.63;6.78;;;;;;;3.58;77.03;97381.47;5016969;28;20025;-93
2022/12/08 11:00:18;;;;;;;7.63;4.15;;;;;;;3.63;76.70;97385.16;5035538;28;20033;-91
2022/12/08 11:03:01;;;;;;;15.27;8.10;;;;;;;3.72;76.85;97388.53;5026743;28;20088;-93
2022/12/08 11:05:43;;;;;;;14.10;7.20;;;;;;;3.85;77.36;97388.75;4990783;28;20108;-92
2022/12/08 11:08:08;;;;;;;12.75;7.28;;;;;;;3.80;76.42;97380.69;5015483;28;20088;-93
2022/12/08 11:10:42;;;;;;;13.02;7.07;;;;;;;3.80;77.85;97367.72;5009677;28;20424;-92
2022/12/08 11:13:25;;;;;;;11.57;6.93;;;;;;;3.92;76.26;97355.13;5000925;28;20092;-92
2022/12/08 11:15:54;;;;;;;12.00;6.68;;;;;;;3.89;76.68;97377.03;5023625;28;20038;-90
2022/12/08 11:18:37;;;;;;;13.48;7.22;;;;;;;3.91;77.06;97369.88;5033289;28;20029;-92
2022/12/08 11:21:13;;;;;;;10.57;6.47;;;;;;;3.94;76.22;97379.09;5027094;28;20069;-91
2022/12/08 11:23:45;;;;;;;12.00;7.45;;;;;;;3.94;77.35;97366.94;5016144;28;20030;-93
2022/12/08 11:26:31;;;;;;;12.55;7.13;;;;;;;4.06;77.97;97348.34;5001452;28;20029;-93
2022/12/08 11:28:59;;;;;;;13.25;6.07;;;;;;;4.05;74.97;97354.53;4989477;28;20033;-93
2022/12/08 11:31:30;;;;;;;12.60;7.15;;;;;;;4.19;76.60;97356.31;5022488;28;20044;-92
2022/12/08 11:33:56;;;;;;;14.45;7.50;;;;;;;3.98;74.69;97339.66;5034941;28;20087;-91
2022/12/08 11:36:28;;;;;;;14.52;7.40;;;;;;;4.03;76.19;97352.13;5001971;28;20101;-94
2022/12/08 11:39:03;;;;;;;13.10;6.80;;;;;;;3.94;76.13;97332.41;5034376;28;20445;-93
2022/12/08 11:41:38;;;;;;;12.50;6.57;;;;;;;3.94;75.95;97335.78;5035420;28;20350;-93
2022/12/08 11:44:41;;;;;;;13.35;7.63;;;;;;;3.81;75.32;97340.78;5001007;28;20526;-93
2022/12/08 11:47:42;;;;;;;12.75;7.40;;;;;;;3.86;75.12;97353.22;5017292;28;20477;-93
2022/12/08 11:50:53;;;;;;;12.65;7.45;;;;;;;3.88;77.45;97344.28;5000461;28;20029;-93
2022/12/08 11:53:46;;;;;;;11.50;6.80;;;;;;;3.98;76.22;97331.06;5000891;28;20046;-93
2022/12/08 11:56:36;;;;;;;16.23;7.28;;;;;;;3.95;75.38;97344.38;5018820;28;20044;-94
2022/12/08 11:59:22;;;;;;;12.13;6.78;;;;;;;3.91;76.59;97345.72;5012595;28;20124;-94